createdAt,value
2023-05-12T00:00:31.834Z,206.81
2023-05-12T00:01:31.891Z,204.95
2023-05-12T00:02:32.035Z,204.14
2023-05-12T00:03:32.219Z,204.22
2023-05-12T00:04:32.012Z,205.89
2023-05-12T00:05:32.014Z,204.50
2023-05-12T00:06:32.067Z,203.23
2023-05-12T00:07:32.128Z,204.31
2023-05-12T00:08:32.180Z,201.31
2023-05-12T00:09:32.225Z,203.00
2023-05-12T00:10:32.271Z,203.81
2023-05-12T00:11:32.305Z,203.82
2023-05-12T00:12:32.369Z,201.89
2023-05-12T00:13:32.454Z,202.71
2023-05-12T00:14:32.472Z,202.63
2023-05-12T00:15:32.532Z,199.67
2023-05-12T00:16:32.656Z,199.41
2023-05-12T00:17:32.664Z,197.96
2023-05-12T00:18:32.688Z,197.74
2023-05-12T00:19:32.721Z,197.51
2023-05-12T00:20:32.754Z,195.93
2023-05-12T00:21:32.784Z,194.92
2023-05-12T00:22:32.823Z,195.10
2023-05-12T00:23:32.760Z,195.56
2023-05-12T00:24:32.767Z,197.33
2023-05-12T00:25:32.770Z,198.67
2023-05-12T00:26:32.743Z,200.93
2023-05-12T00:27:32.726Z,199.76
2023-05-12T00:28:32.732Z,200.90
2023-05-12T00:29:32.716Z,202.81
2023-05-12T00:30:32.749Z,203.26
2023-05-12T00:31:32.804Z,202.87
2023-05-12T00:32:32.809Z,201.39
2023-05-12T00:33:32.842Z,203.00
2023-05-12T00:34:32.877Z,202.10
2023-05-12T00:35:32.928Z,202.56
2023-05-12T00:36:33.024Z,203.85
2023-05-12T00:37:33.026Z,202.05
2023-05-12T00:38:33.072Z,201.95
2023-05-12T00:39:33.096Z,203.16
2023-05-12T00:40:33.144Z,204.28
2023-05-12T00:41:33.177Z,204.31
2023-05-12T00:42:33.198Z,201.00
2023-05-12T00:43:33.242Z,201.15
2023-05-12T00:44:33.333Z,202.19
2023-05-12T00:45:33.376Z,204.27
2023-05-12T00:46:33.348Z,204.34
2023-05-12T00:47:33.426Z,203.25
2023-05-12T00:48:33.443Z,204.46
2023-05-12T00:49:33.497Z,201.41
2023-05-12T00:50:33.524Z,206.30
2023-05-12T00:51:33.565Z,203.37
2023-05-12T00:52:33.597Z,205.03
2023-05-12T00:53:47.684Z,202.39
2023-05-12T00:54:34.626Z,202.53
2023-05-12T00:55:33.611Z,202.86
2023-05-12T00:56:34.087Z,202.97
2023-05-12T00:57:33.581Z,205.85
2023-05-12T00:58:33.574Z,207.25
2023-05-12T00:59:33.571Z,205.48
2023-05-12T01:00:33.556Z,204.32
2023-05-12T01:01:33.660Z,205.87
2023-05-12T01:02:33.626Z,204.96
2023-05-12T01:03:33.768Z,208.36
2023-05-12T01:04:33.651Z,207.28
2023-05-12T01:05:33.695Z,204.35
2023-05-12T01:06:33.715Z,204.52
2023-05-12T01:07:33.908Z,206.41
2023-05-12T01:08:33.804Z,206.05
2023-05-12T01:09:33.833Z,205.66
2023-05-12T01:10:33.903Z,208.47
2023-05-12T01:11:33.943Z,207.38
2023-05-12T01:12:33.960Z,205.80
2023-05-12T01:13:33.983Z,207.47
2023-05-12T01:14:34.025Z,205.58
2023-05-12T01:15:34.065Z,207.53
2023-05-12T01:16:34.116Z,208.18
2023-05-12T01:17:34.260Z,206.41
2023-05-12T01:18:34.216Z,205.33
2023-05-12T01:19:34.214Z,204.54
2023-05-12T01:20:34.262Z,206.46
2023-05-12T01:21:34.338Z,206.61
2023-05-12T01:22:34.322Z,208.53
2023-05-12T01:23:34.393Z,204.36
2023-05-12T01:24:34.412Z,209.79
2023-05-12T01:25:34.437Z,209.53
2023-05-12T01:26:34.526Z,208.95
2023-05-12T01:27:34.553Z,206.37
2023-05-12T01:28:34.622Z,208.35
2023-05-12T01:29:34.605Z,208.76
2023-05-12T01:30:34.798Z,208.82
2023-05-12T01:31:34.877Z,208.45
2023-05-12T01:32:34.841Z,208.69
2023-05-12T01:33:34.785Z,207.07
2023-05-12T01:34:34.832Z,207.87
2023-05-12T01:35:34.897Z,207.64
2023-05-12T01:36:35.095Z,209.13
2023-05-12T01:37:35.009Z,210.35
2023-05-12T01:38:35.101Z,210.01
2023-05-12T01:39:35.025Z,208.94
2023-05-12T01:40:35.112Z,210.74
2023-05-12T01:41:35.123Z,208.38
2023-05-12T01:42:35.170Z,210.80
2023-05-12T01:43:35.240Z,209.81
2023-05-12T01:44:35.273Z,208.54
2023-05-12T01:45:35.263Z,208.71
2023-05-12T01:46:35.284Z,209.21
2023-05-12T01:47:35.215Z,209.07
2023-05-12T01:48:35.206Z,209.73
2023-05-12T01:49:35.178Z,208.51
2023-05-12T01:50:35.172Z,213.05
2023-05-12T01:51:35.204Z,210.74
2023-05-12T01:52:35.165Z,210.57
2023-05-12T01:53:35.195Z,210.38
2023-05-12T01:54:35.237Z,210.49
2023-05-12T01:55:35.250Z,207.63
2023-05-12T01:56:35.289Z,210.43
2023-05-12T01:57:35.369Z,206.27
2023-05-12T01:58:35.429Z,209.39
2023-05-12T01:59:35.431Z,209.02
2023-05-12T02:00:35.488Z,211.04
2023-05-12T02:01:35.567Z,210.78
2023-05-12T02:02:35.599Z,211.70
2023-05-12T02:03:35.639Z,210.78
2023-05-12T02:04:35.618Z,212.65
2023-05-12T02:05:35.661Z,208.10
2023-05-12T02:06:35.726Z,210.75
2023-05-12T02:07:35.773Z,211.29
2023-05-12T02:08:35.792Z,208.12
2023-05-12T02:09:35.850Z,212.45
2023-05-12T02:10:35.909Z,210.72
2023-05-12T02:11:35.968Z,210.91
2023-05-12T02:12:36.002Z,207.99
2023-05-12T02:13:36.103Z,209.58
2023-05-12T02:14:36.110Z,211.03
2023-05-12T02:15:36.144Z,213.81
2023-05-12T02:16:36.220Z,210.67
2023-05-12T02:17:36.347Z,209.88
2023-05-12T02:18:36.295Z,211.35
2023-05-12T02:19:36.349Z,209.91
2023-05-12T02:20:36.391Z,211.43
2023-05-12T02:21:36.408Z,211.18
2023-05-12T02:22:36.478Z,208.60
2023-05-12T02:23:36.508Z,209.56
2023-05-12T02:24:36.530Z,211.59
2023-05-12T02:25:36.550Z,209.71
2023-05-12T02:26:36.556Z,212.42
2023-05-12T02:27:36.585Z,210.98
2023-05-12T02:28:36.627Z,210.75
2023-05-12T02:29:36.626Z,212.74
2023-05-12T02:30:36.654Z,211.93
2023-05-12T02:31:36.711Z,214.13
2023-05-12T02:32:36.754Z,209.60
2023-05-12T02:33:36.875Z,212.56
2023-05-12T02:34:36.874Z,211.07
2023-05-12T02:35:37.606Z,211.00
2023-05-12T02:36:37.638Z,211.96
2023-05-12T02:37:36.940Z,212.54
2023-05-12T02:38:36.982Z,212.38
2023-05-12T02:39:36.998Z,210.83
2023-05-12T02:40:37.047Z,212.77
2023-05-12T02:41:37.079Z,209.33
2023-05-12T02:42:37.221Z,204.53
2023-05-12T02:43:38.167Z,201.97
2023-05-12T02:44:37.203Z,201.42
2023-05-12T02:45:37.253Z,194.81
2023-05-12T02:46:37.237Z,191.30
2023-05-12T02:47:37.286Z,185.74
2023-05-12T02:48:37.227Z,179.88
2023-05-12T02:49:37.240Z,172.55
2023-05-12T02:50:38.126Z,173.04
2023-05-12T02:51:37.620Z,164.88
2023-05-12T02:52:37.205Z,162.16
2023-05-12T02:53:37.173Z,159.81
2023-05-12T02:54:38.159Z,156.38
2023-05-12T02:55:37.215Z,153.69
2023-05-12T02:56:37.633Z,151.75
2023-05-12T02:57:38.131Z,146.43
2023-05-12T02:58:37.228Z,142.90
2023-05-12T02:59:37.342Z,141.80
2023-05-12T03:00:37.258Z,140.13
2023-05-12T03:01:37.231Z,136.22
2023-05-12T03:02:37.319Z,135.36
2023-05-12T03:03:38.406Z,132.35
2023-05-12T03:04:37.226Z,130.45
2023-05-12T03:05:37.237Z,130.76
2023-05-12T03:06:37.631Z,127.89
2023-05-12T03:07:37.237Z,127.15
2023-05-12T03:08:37.198Z,127.28
2023-05-12T03:09:37.331Z,124.77
2023-05-12T03:10:37.250Z,125.92
2023-05-12T03:11:37.233Z,117.88
2023-05-12T03:12:37.246Z,115.31
2023-05-12T03:13:37.239Z,113.56
2023-05-12T03:14:37.166Z,112.74
2023-05-12T03:15:37.222Z,109.82
2023-05-12T03:16:37.159Z,107.94
2023-05-12T03:17:37.317Z,105.27
2023-05-12T03:18:37.305Z,104.82
2023-05-12T03:19:37.256Z,108.28
2023-05-12T03:20:37.249Z,103.33
2023-05-12T03:21:37.322Z,103.07
2023-05-12T03:22:38.150Z,101.28
2023-05-12T03:23:37.257Z,95.82
2023-05-12T03:24:37.237Z,95.13
2023-05-12T03:25:38.154Z,93.89
2023-05-12T03:26:37.271Z,89.86
2023-05-12T03:27:38.158Z,87.10
2023-05-12T03:28:37.269Z,85.53
2023-05-12T03:29:37.271Z,85.12
2023-05-12T03:30:37.288Z,83.69
2023-05-12T03:31:37.696Z,83.71
2023-05-12T03:32:37.356Z,87.09
2023-05-12T03:33:37.309Z,86.71
2023-05-12T03:34:38.130Z,81.15
2023-05-12T03:35:37.328Z,81.79
2023-05-12T03:36:37.334Z,85.19
2023-05-12T03:37:37.311Z,80.52
2023-05-12T03:38:37.330Z,75.60
2023-05-12T03:39:38.138Z,73.19
2023-05-12T03:40:37.330Z,73.34
2023-05-12T03:41:37.326Z,75.93
2023-05-12T03:42:37.325Z,73.38
2023-05-12T03:43:37.346Z,73.50
2023-05-12T03:44:37.322Z,71.72
2023-05-12T03:45:37.328Z,71.98
2023-05-12T03:46:37.542Z,70.22
2023-05-12T03:47:37.588Z,67.52
2023-05-12T03:48:37.338Z,63.88
2023-05-12T03:49:37.317Z,63.99
2023-05-12T03:50:37.326Z,61.13
2023-05-12T03:51:37.409Z,62.00
2023-05-12T03:52:38.137Z,58.26
2023-05-12T03:53:37.458Z,56.05
2023-05-12T03:54:38.193Z,54.24
2023-05-12T03:55:37.339Z,58.83
2023-05-12T03:56:37.311Z,57.73
2023-05-12T03:57:37.311Z,57.77
2023-05-12T03:58:37.349Z,54.88
2023-05-12T03:59:37.349Z,55.69
2023-05-12T04:00:37.316Z,55.42
2023-05-12T04:01:37.742Z,51.24
2023-05-12T04:02:38.196Z,54.19
2023-05-12T04:03:37.453Z,55.05
2023-05-12T04:04:37.310Z,54.16
2023-05-12T04:05:37.331Z,55.20
2023-05-12T04:06:37.677Z,54.34
2023-05-12T04:07:37.340Z,52.91
2023-05-12T04:08:38.956Z,53.87
2023-05-12T04:09:37.416Z,55.95
2023-05-12T04:10:37.319Z,55.85
2023-05-12T04:11:37.375Z,58.98
2023-05-12T04:12:37.318Z,56.66
2023-05-12T04:13:38.145Z,56.77
2023-05-12T04:14:42.784Z,55.30
2023-05-12T04:15:38.296Z,55.44
2023-05-12T04:16:37.358Z,55.32
2023-05-12T04:17:37.348Z,51.62
2023-05-12T04:18:38.219Z,51.62
2023-05-12T04:19:37.368Z,49.78
2023-05-12T04:20:37.408Z,53.97
2023-05-12T04:21:37.671Z,52.99
2023-05-12T04:22:38.153Z,54.30
2023-05-12T04:23:37.362Z,50.70
2023-05-12T04:24:37.317Z,54.01
2023-05-12T04:25:37.414Z,54.28
2023-05-12T04:26:37.362Z,50.88
2023-05-12T04:27:38.172Z,52.38
2023-05-12T04:28:38.152Z,52.47
2023-05-12T04:29:37.326Z,52.90
2023-05-12T04:30:37.454Z,52.74
2023-05-12T04:31:37.428Z,49.60
2023-05-12T04:32:37.317Z,53.06
2023-05-12T04:33:37.385Z,53.31
2023-05-12T04:34:37.337Z,48.80
2023-05-12T04:35:37.357Z,54.47
2023-05-12T04:36:37.352Z,55.09
2023-05-12T04:37:37.687Z,49.87
2023-05-12T04:38:37.415Z,50.97
2023-05-12T04:39:37.405Z,51.34
2023-05-12T04:40:37.318Z,50.07
2023-05-12T04:41:37.529Z,51.36
2023-05-12T04:42:37.678Z,55.84
2023-05-12T04:44:37.344Z,53.21
2023-05-12T04:45:37.396Z,54.03
2023-05-12T04:46:37.471Z,57.12
2023-05-12T04:47:37.435Z,60.96
2023-05-12T04:48:37.452Z,65.48
2023-05-12T04:49:37.372Z,71.66
2023-05-12T04:50:37.427Z,68.00
2023-05-12T04:51:37.247Z,74.52
2023-05-12T04:52:37.357Z,70.46
2023-05-12T04:53:37.266Z,75.82
2023-05-12T04:54:37.410Z,71.46
2023-05-12T04:55:37.421Z,70.53
2023-05-12T04:56:37.424Z,74.75
2023-05-12T04:57:37.331Z,73.28
2023-05-12T04:58:37.366Z,72.40
2023-05-12T04:59:38.137Z,73.02
2023-05-12T05:00:37.422Z,75.73
2023-05-12T05:01:37.448Z,75.59
2023-05-12T05:02:37.454Z,73.61
2023-05-12T05:03:37.644Z,72.32
2023-05-12T05:04:38.179Z,72.00
2023-05-12T05:05:37.465Z,70.57
2023-05-12T05:06:37.450Z,72.07
2023-05-12T05:07:37.392Z,69.69
2023-05-12T05:08:37.413Z,70.79
2023-05-12T05:09:37.381Z,67.87
2023-05-12T05:10:37.385Z,70.14
2023-05-12T05:11:38.220Z,66.30
2023-05-12T05:12:37.443Z,67.79
2023-05-12T05:13:37.405Z,67.01
2023-05-12T05:14:37.418Z,67.11
2023-05-12T05:15:37.445Z,67.24
2023-05-12T05:16:37.425Z,67.50
2023-05-12T05:17:37.498Z,67.79
2023-05-12T05:18:37.417Z,67.18
2023-05-12T05:19:53.097Z,67.22
2023-05-12T05:21:37.453Z,67.97
2023-05-12T05:22:37.698Z,67.20
2023-05-12T05:23:37.428Z,68.04
2023-05-12T05:24:37.412Z,68.57
2023-05-12T05:25:37.371Z,66.56
2023-05-12T05:26:37.457Z,65.63
2023-05-12T05:27:37.418Z,68.70
2023-05-12T05:28:37.409Z,66.20
2023-05-12T05:29:37.412Z,62.48
2023-05-12T05:30:37.488Z,65.16
2023-05-12T05:31:37.495Z,64.74
2023-05-12T05:32:37.860Z,64.45
2023-05-12T05:33:37.424Z,63.14
2023-05-12T05:34:37.513Z,62.70
2023-05-12T05:35:40.184Z,66.32
2023-05-12T05:36:37.501Z,65.18
2023-05-12T05:37:37.476Z,66.62
2023-05-12T05:38:38.232Z,66.71
2023-05-12T05:39:37.382Z,68.50
2023-05-12T05:40:51.557Z,67.71
2023-05-12T05:41:38.426Z,66.53
2023-05-12T05:42:38.306Z,67.84
2023-05-12T05:43:38.409Z,68.21
2023-05-12T05:44:38.462Z,68.20
2023-05-12T05:45:37.506Z,70.51
2023-05-12T05:46:38.258Z,70.54
2023-05-12T05:47:37.672Z,72.23
2023-05-12T05:48:37.470Z,69.90
2023-05-12T05:49:39.217Z,67.19
2023-05-12T05:50:38.195Z,66.01
2023-05-12T05:51:37.571Z,53.75
2023-05-12T05:52:37.703Z,39.59
2023-05-12T05:53:37.519Z,31.25
2023-05-12T05:54:37.526Z,24.86
2023-05-12T05:55:37.623Z,25.55
2023-05-12T05:56:38.227Z,26.34
2023-05-12T05:57:37.519Z,27.01
2023-05-12T05:58:37.517Z,28.08
2023-05-12T05:59:37.562Z,28.93
2023-05-12T06:00:37.588Z,29.16
2023-05-12T06:01:37.618Z,28.98
2023-05-12T06:02:37.766Z,28.21
2023-05-12T06:03:37.737Z,24.70
2023-05-12T06:04:38.200Z,25.13
2023-05-12T06:05:37.708Z,21.17
2023-05-12T06:06:37.682Z,19.86
2023-05-12T06:07:37.715Z,28.00
2023-05-12T06:08:37.735Z,27.80
2023-05-12T06:09:37.747Z,26.54
2023-05-12T06:10:37.825Z,25.84
2023-05-12T06:11:37.823Z,27.80
2023-05-12T06:12:37.857Z,24.14
2023-05-12T06:13:37.871Z,22.52
2023-05-12T06:14:37.897Z,20.96
2023-05-12T06:15:37.912Z,19.69
2023-05-12T06:16:37.966Z,21.00
2023-05-12T06:17:38.409Z,21.45
2023-05-12T06:18:38.306Z,24.09
2023-05-12T06:19:38.036Z,28.94
2023-05-12T06:20:38.037Z,36.10
2023-05-12T06:21:38.081Z,47.26
2023-05-12T06:22:38.100Z,53.27
2023-05-12T06:23:38.120Z,53.47
2023-05-12T06:24:38.200Z,53.60
2023-05-12T06:25:38.153Z,53.85
2023-05-12T06:26:38.223Z,55.09
2023-05-12T06:27:38.272Z,52.09
2023-05-12T06:28:38.184Z,55.61
2023-05-12T06:29:38.225Z,55.25
2023-05-12T06:30:38.247Z,56.61
2023-05-12T06:31:38.286Z,56.66
2023-05-12T06:32:38.278Z,56.85
2023-05-12T06:33:39.228Z,56.90
2023-05-12T06:34:38.280Z,57.76
2023-05-12T06:35:38.279Z,43.87
2023-05-12T06:36:38.270Z,23.90
2023-05-12T06:37:38.327Z,25.00
2023-05-12T06:38:38.314Z,29.84
2023-05-12T06:39:38.335Z,34.83
2023-05-12T06:40:38.347Z,47.36
2023-05-12T06:41:38.382Z,48.79
2023-05-12T06:42:38.462Z,54.16
2023-05-12T06:43:38.666Z,55.66
2023-05-12T06:44:41.107Z,60.30
2023-05-12T06:45:38.619Z,64.92
2023-05-12T06:46:38.752Z,65.17
2023-05-12T06:47:38.684Z,67.23
2023-05-12T06:48:38.809Z,75.36
2023-05-12T06:49:38.781Z,77.26
2023-05-12T06:50:38.692Z,82.30
2023-05-12T06:51:38.817Z,83.02
2023-05-12T06:52:38.677Z,83.32
2023-05-12T06:53:38.857Z,83.98
2023-05-12T06:54:38.678Z,86.08
2023-05-12T06:55:38.686Z,87.04
2023-05-12T06:56:38.718Z,92.46
2023-05-12T06:57:38.780Z,83.45
2023-05-12T06:58:38.727Z,85.03
2023-05-12T06:59:38.729Z,88.51
2023-05-12T07:00:38.813Z,92.26
2023-05-12T07:01:38.831Z,100.99
2023-05-12T07:02:38.761Z,101.68
2023-05-12T07:03:38.823Z,101.39
2023-05-12T07:04:38.761Z,106.57
2023-05-12T07:05:38.865Z,103.34
2023-05-12T07:06:38.792Z,101.54
2023-05-12T07:07:38.745Z,100.87
2023-05-12T07:08:38.732Z,101.70
2023-05-12T07:09:38.741Z,100.32
2023-05-12T07:10:38.754Z,98.83
2023-05-12T07:11:38.777Z,99.30
2023-05-12T07:12:38.778Z,97.68
2023-05-12T07:13:38.817Z,96.71
2023-05-12T07:14:38.779Z,92.73
2023-05-12T07:15:38.859Z,88.26
2023-05-12T07:16:38.808Z,84.77
2023-05-12T07:17:40.789Z,80.02
2023-05-12T07:18:39.774Z,73.28
2023-05-12T07:19:38.917Z,71.31
2023-05-12T07:20:38.821Z,71.82
2023-05-12T07:21:38.860Z,70.37
2023-05-12T07:22:39.212Z,69.79
2023-05-12T07:23:38.926Z,69.87
2023-05-12T07:24:38.897Z,66.76
2023-05-12T07:25:39.031Z,66.76
2023-05-12T07:26:38.948Z,65.14
2023-05-12T07:27:39.318Z,67.38
2023-05-12T07:28:38.990Z,64.91
2023-05-12T07:29:38.971Z,62.83
2023-05-12T07:30:39.013Z,60.71
2023-05-12T07:31:39.806Z,57.86
2023-05-12T07:32:39.099Z,57.68
2023-05-12T07:33:39.068Z,54.92
2023-05-12T07:34:39.091Z,60.24
2023-05-12T07:35:39.125Z,53.09
2023-05-12T07:36:39.157Z,56.72
2023-05-12T07:37:39.191Z,53.05
2023-05-12T07:38:39.190Z,51.92
2023-05-12T07:39:39.195Z,49.06
2023-05-12T07:40:39.189Z,48.11
2023-05-12T07:41:39.185Z,48.51
2023-05-12T07:42:39.215Z,47.03
2023-05-12T07:43:39.206Z,50.17
2023-05-12T07:44:39.228Z,50.31
2023-05-12T07:45:39.232Z,51.39
2023-05-12T07:46:39.315Z,49.51
2023-05-12T07:47:39.584Z,43.88
2023-05-12T07:48:39.273Z,39.77
2023-05-12T07:49:39.271Z,36.68
2023-05-12T07:50:39.585Z,38.56
2023-05-12T07:51:39.361Z,40.62
2023-05-12T07:52:39.322Z,47.34
2023-05-12T07:53:39.339Z,59.38
2023-05-12T07:54:39.315Z,69.60
2023-05-12T07:55:39.335Z,80.17
2023-05-12T07:56:39.323Z,87.98
2023-05-12T07:57:39.315Z,97.55
2023-05-12T07:58:39.389Z,106.09
2023-05-12T07:59:39.405Z,112.17
2023-05-12T08:00:39.430Z,116.72
2023-05-12T08:01:39.568Z,123.56
2023-05-12T08:02:39.625Z,131.12
2023-05-12T08:03:39.702Z,139.15
2023-05-12T08:04:39.667Z,143.71
2023-05-12T08:05:39.674Z,150.78
2023-05-12T08:06:39.736Z,157.56
2023-05-12T08:07:41.210Z,161.35
2023-05-12T08:08:39.819Z,165.24
2023-05-12T08:09:40.325Z,167.84
2023-05-12T08:10:42.412Z,170.81
2023-05-12T08:11:39.936Z,171.13
2023-05-12T08:12:40.036Z,174.59
2023-05-12T08:13:39.925Z,176.42
2023-05-12T08:14:39.933Z,180.58
2023-05-12T08:15:40.119Z,185.39
2023-05-12T08:16:39.923Z,184.20
2023-05-12T08:17:39.915Z,184.64
2023-05-12T08:18:39.912Z,186.20
2023-05-12T08:19:39.871Z,189.50
2023-05-12T08:20:39.901Z,196.58
2023-05-12T08:21:39.922Z,212.57
2023-05-12T08:22:39.939Z,219.74
2023-05-12T08:23:39.857Z,222.12
2023-05-12T08:24:39.867Z,224.20
2023-05-12T08:25:39.861Z,222.31
2023-05-12T08:26:39.796Z,224.08
2023-05-12T08:27:39.852Z,221.46
2023-05-12T08:28:39.792Z,221.46
2023-05-12T08:29:39.810Z,217.60
2023-05-12T08:30:39.797Z,218.06
2023-05-12T08:31:39.812Z,215.06
2023-05-12T08:32:39.778Z,213.73
2023-05-12T08:33:39.789Z,207.13
2023-05-12T08:34:39.743Z,195.94
2023-05-12T08:35:39.733Z,186.09
2023-05-12T08:36:39.822Z,180.58
2023-05-12T08:37:39.708Z,176.63
2023-05-12T08:38:39.714Z,173.25
2023-05-12T08:39:39.745Z,172.67
2023-05-12T08:40:41.833Z,165.98
2023-05-12T08:41:39.884Z,161.23
2023-05-12T08:42:39.912Z,146.73
2023-05-12T08:43:39.930Z,145.02
2023-05-12T08:44:39.997Z,143.14
2023-05-12T08:45:40.065Z,147.36
2023-05-12T08:46:40.097Z,154.70
2023-05-12T08:47:40.117Z,156.00
2023-05-12T08:48:40.268Z,160.54
2023-05-12T08:49:40.233Z,162.76
2023-05-12T08:50:40.302Z,166.08
2023-05-12T08:51:40.448Z,167.07
2023-05-12T08:52:41.316Z,170.38
2023-05-12T08:53:42.421Z,172.02
2023-05-12T08:54:52.318Z,174.81
2023-05-12T08:55:42.595Z,175.07
2023-05-12T08:57:40.530Z,175.16
2023-05-12T08:58:42.079Z,176.14
2023-05-12T08:59:40.619Z,175.22
2023-05-12T09:00:40.550Z,177.05
2023-05-12T09:01:41.290Z,180.56
2023-05-12T09:02:52.148Z,185.30
2023-05-12T09:03:43.405Z,175.46
2023-05-12T09:04:40.429Z,178.33
2023-05-12T09:05:40.370Z,182.32
2023-05-12T09:06:40.542Z,190.11
2023-05-12T09:07:40.369Z,200.72
2023-05-12T09:08:40.383Z,203.95
2023-05-12T09:09:40.411Z,204.24
2023-05-12T09:10:40.323Z,205.99
2023-05-12T09:11:41.266Z,211.44
2023-05-12T09:12:40.307Z,213.78
2023-05-12T09:13:40.686Z,214.50
2023-05-12T09:14:40.296Z,215.49
2023-05-12T09:15:40.329Z,217.92
2023-05-12T09:16:41.892Z,217.25
2023-05-12T09:17:41.309Z,219.35
2023-05-12T09:18:40.297Z,222.13
2023-05-12T09:19:40.275Z,221.70
2023-05-12T09:20:40.805Z,224.90
2023-05-12T09:21:40.224Z,223.70
2023-05-12T09:22:40.186Z,225.96
2023-05-12T09:23:40.262Z,228.91
2023-05-12T09:24:40.131Z,229.83
2023-05-12T09:25:40.240Z,231.00
2023-05-12T09:26:40.140Z,231.09
2023-05-12T09:27:40.168Z,228.68
2023-05-12T09:28:40.105Z,232.38
2023-05-12T09:29:48.222Z,229.01
2023-05-12T09:30:40.083Z,229.35
2023-05-12T09:31:40.205Z,229.82
2023-05-12T09:32:40.103Z,232.42
2023-05-12T09:33:45.470Z,233.17
2023-05-12T09:34:40.097Z,229.46
2023-05-12T09:35:40.128Z,230.94
2023-05-12T09:36:40.132Z,232.90
2023-05-12T09:37:40.123Z,229.55
2023-05-12T09:38:40.125Z,231.51
2023-05-12T09:39:40.111Z,234.21
2023-05-12T09:40:40.063Z,236.21
2023-05-12T09:41:40.064Z,244.08
2023-05-12T09:42:40.022Z,243.91
2023-05-12T09:43:40.089Z,247.65
2023-05-12T09:44:40.065Z,246.77
2023-05-12T09:45:40.024Z,244.66
2023-05-12T09:46:40.007Z,238.78
2023-05-12T09:47:39.989Z,233.20
2023-05-12T09:48:40.366Z,232.48
2023-05-12T09:49:39.999Z,224.66
2023-05-12T09:50:47.395Z,224.97
2023-05-12T09:51:41.051Z,225.21
2023-05-12T09:52:40.007Z,224.95
2023-05-12T09:53:39.942Z,223.47
2023-05-12T09:54:39.902Z,220.06
2023-05-12T09:55:39.928Z,220.26
2023-05-12T09:56:39.893Z,212.34
2023-05-12T09:57:39.851Z,213.07
2023-05-12T09:58:39.881Z,204.22
2023-05-12T09:59:41.635Z,204.38
2023-05-12T10:01:05.966Z,204.81
2023-05-12T10:01:40.863Z,204.60
2023-05-12T10:02:39.813Z,205.46
2023-05-12T10:03:39.745Z,208.35
2023-05-12T10:04:39.860Z,209.97
2023-05-12T10:05:39.753Z,213.85
2023-05-12T10:06:39.700Z,213.99
2023-05-12T10:07:39.651Z,212.59
2023-05-12T10:08:39.652Z,213.71
2023-05-12T10:09:39.751Z,207.31
2023-05-12T10:10:39.711Z,207.36
2023-05-12T10:11:39.569Z,206.82
2023-05-12T10:12:39.594Z,207.86
2023-05-12T10:13:39.560Z,213.31
2023-05-12T10:14:39.523Z,223.05
2023-05-12T10:15:39.477Z,223.28
2023-05-12T10:16:39.497Z,226.42
2023-05-12T10:17:39.668Z,227.72
2023-05-12T10:18:39.561Z,224.50
2023-05-12T10:19:39.399Z,212.07
2023-05-12T10:20:39.364Z,213.82
2023-05-12T10:21:39.386Z,211.56
2023-05-12T10:22:39.334Z,213.88
2023-05-12T10:23:39.329Z,211.40
2023-05-12T10:24:39.445Z,212.74
2023-05-12T10:25:39.811Z,201.95
2023-05-12T10:26:39.286Z,195.34
2023-05-12T10:27:39.268Z,196.07
2023-05-12T10:28:39.240Z,199.01
2023-05-12T10:29:39.171Z,200.73
2023-05-12T10:30:39.203Z,195.86
2023-05-12T10:31:39.272Z,191.47
2023-05-12T10:32:39.187Z,186.69
2023-05-12T10:33:39.210Z,182.14
2023-05-12T10:34:39.123Z,183.17
2023-05-12T10:35:39.040Z,185.33
2023-05-12T10:36:39.818Z,187.84
2023-05-12T10:37:39.033Z,183.80
2023-05-12T10:38:38.995Z,179.30
2023-05-12T10:39:38.946Z,186.07
2023-05-12T10:40:38.963Z,181.28
2023-05-12T10:41:38.898Z,184.90
2023-05-12T10:42:38.901Z,186.70
2023-05-12T10:43:38.854Z,191.53
2023-05-12T10:44:38.871Z,194.97
2023-05-12T10:45:38.994Z,189.16
2023-05-12T10:46:38.867Z,199.54
2023-05-12T10:47:38.860Z,196.07
2023-05-12T10:48:38.822Z,201.50
2023-05-12T10:49:38.877Z,203.08
2023-05-12T10:50:38.825Z,206.50
2023-05-12T10:51:38.906Z,206.78
2023-05-12T10:52:39.626Z,199.96
2023-05-12T10:53:49.182Z,199.28
2023-05-12T10:54:39.801Z,199.61
2023-05-12T10:55:38.922Z,201.06
2023-05-12T10:56:38.948Z,204.69
2023-05-12T10:57:39.071Z,214.76
2023-05-12T10:58:39.678Z,229.39
2023-05-12T10:59:38.931Z,234.02
2023-05-12T11:00:38.997Z,241.55
2023-05-12T11:01:39.486Z,238.85
2023-05-12T11:02:39.864Z,239.20
2023-05-12T11:03:39.633Z,250.00
2023-05-12T11:04:38.661Z,249.43
2023-05-12T11:05:38.677Z,249.82
2023-05-12T11:06:39.753Z,249.76
2023-05-12T11:07:39.783Z,250.00
2023-05-12T11:08:39.988Z,250.00
2023-05-12T11:09:43.429Z,248.83
2023-05-12T11:10:39.769Z,249.07
2023-05-12T11:11:54.256Z,250.99
2023-05-12T11:12:42.104Z,249.65
2023-05-12T11:13:38.290Z,249.99
2023-05-12T11:14:38.310Z,254.37
2023-05-12T11:15:38.246Z,262.23
2023-05-12T11:16:38.324Z,273.75
2023-05-12T11:17:38.284Z,288.24
2023-05-12T11:18:38.216Z,270.44
2023-05-12T11:19:38.147Z,254.40
2023-05-12T11:20:38.087Z,250.00
2023-05-12T11:21:38.077Z,248.80
2023-05-12T11:22:38.049Z,249.79
2023-05-12T11:23:38.037Z,249.52
2023-05-12T11:24:38.843Z,248.81
2023-05-12T11:25:38.025Z,249.47
2023-05-12T11:26:37.956Z,249.43
2023-05-12T11:27:38.058Z,248.69
2023-05-12T11:28:38.869Z,249.24
2023-05-12T11:29:38.950Z,248.47
2023-05-12T11:30:37.870Z,246.93
2023-05-12T11:31:37.839Z,244.65
2023-05-12T11:32:37.996Z,245.81
2023-05-12T11:33:37.752Z,243.26
2023-05-12T11:34:37.731Z,242.64
2023-05-12T11:35:37.703Z,242.24
2023-05-12T11:36:37.692Z,240.97
2023-05-12T11:37:37.731Z,241.02
2023-05-12T11:38:37.660Z,237.17
2023-05-12T11:39:37.636Z,237.39
2023-05-12T11:40:37.728Z,237.76
2023-05-12T11:41:38.321Z,237.54
2023-05-12T11:42:37.638Z,235.81
2023-05-12T11:43:37.516Z,237.24
2023-05-12T11:44:37.545Z,236.87
2023-05-12T11:45:37.471Z,236.87
2023-05-12T11:46:37.636Z,236.15
2023-05-12T11:47:37.468Z,236.84
2023-05-12T11:48:37.381Z,237.59
2023-05-12T11:49:37.358Z,241.03
2023-05-12T11:50:37.358Z,238.11
2023-05-12T11:51:37.330Z,237.42
2023-05-12T11:52:37.309Z,238.26
2023-05-12T11:53:37.303Z,239.42
2023-05-12T11:54:37.253Z,240.28
2023-05-12T11:55:37.243Z,240.36
2023-05-12T11:56:37.204Z,239.81
2023-05-12T11:57:37.308Z,240.51
2023-05-12T11:58:37.153Z,241.24
2023-05-12T11:59:37.176Z,241.47
2023-05-12T12:00:37.130Z,240.56
2023-05-12T12:01:37.111Z,240.05
2023-05-12T12:02:37.218Z,240.39
2023-05-12T12:03:37.278Z,241.13
2023-05-12T12:04:37.110Z,239.96
2023-05-12T12:05:37.081Z,241.86
2023-05-12T12:06:37.114Z,241.67
2023-05-12T12:07:37.327Z,245.03
2023-05-12T12:08:37.220Z,246.09
2023-05-12T12:09:37.221Z,246.71
2023-05-12T12:10:37.221Z,250.00
2023-05-12T12:11:37.289Z,247.96
2023-05-12T12:12:37.303Z,250.00
2023-05-12T12:13:37.296Z,250.00
2023-05-12T12:14:38.411Z,249.29
2023-05-12T12:15:37.394Z,249.84
2023-05-12T12:16:37.420Z,249.41
2023-05-12T12:17:37.356Z,248.93
2023-05-12T12:18:37.426Z,249.10
2023-05-12T12:19:37.533Z,249.88
2023-05-12T12:20:37.443Z,250.00
2023-05-12T12:21:37.599Z,249.25
2023-05-12T12:22:37.527Z,247.85
2023-05-12T12:23:50.001Z,249.00
2023-05-12T12:24:38.544Z,249.12
2023-05-12T12:25:37.489Z,249.51
2023-05-12T12:26:39.389Z,250.22
2023-05-12T12:27:37.464Z,251.23
2023-05-12T12:28:37.418Z,251.54
2023-05-12T12:29:37.427Z,248.42
2023-05-12T12:30:37.426Z,249.74
2023-05-12T12:31:37.524Z,248.94
2023-05-12T12:32:37.485Z,248.23
2023-05-12T12:33:37.714Z,248.72
2023-05-12T12:34:37.541Z,249.14
2023-05-12T12:35:37.677Z,247.35
2023-05-12T12:36:37.710Z,249.70
2023-05-12T12:37:37.715Z,248.29
2023-05-12T12:38:37.727Z,246.98
2023-05-12T12:39:37.784Z,248.41